createdAt,value
2022-10-11T00:00:53.725Z,18.40
2022-10-11T00:03:33.670Z,14.60
2022-10-11T00:06:03.747Z,18.00
2022-10-11T00:08:32.740Z,15.90
2022-10-11T00:11:01.837Z,23.70
2022-10-11T00:13:29.656Z,19.90
2022-10-11T00:15:57.580Z,18.60
2022-10-11T00:18:25.611Z,11.90
2022-10-11T00:21:03.607Z,15.40
2022-10-11T00:23:31.369Z,21.20
2022-10-11T00:26:00.299Z,10.00
2022-10-11T00:28:28.308Z,12.10
2022-10-11T00:30:56.162Z,14.10
2022-10-11T00:33:23.931Z,16.90
2022-10-11T00:35:52.917Z,18.80
2022-10-11T00:38:20.637Z,14.80
2022-10-11T00:40:48.565Z,22.20
2022-10-11T00:43:17.866Z,13.90
2022-10-11T00:45:58.133Z,15.10
2022-10-11T00:48:40.910Z,11.80
2022-10-11T00:51:17.181Z,18.70
2022-10-11T00:53:47.165Z,18.90
2022-10-11T00:56:18.894Z,22.20
2022-10-11T00:58:46.781Z,20.60
2022-10-11T01:01:14.746Z,15.90
2022-10-11T01:03:42.678Z,21.70
2022-10-11T01:06:10.386Z,16.10
2022-10-11T01:08:38.772Z,15.20
2022-10-11T01:11:06.683Z,20.30
2022-10-11T01:13:44.459Z,14.20
2022-10-11T01:16:17.441Z,15.70
2022-10-11T01:18:49.551Z,18.20
2022-10-11T01:21:29.746Z,13.80
2022-10-11T01:23:57.412Z,17.90
2022-10-11T01:26:49.872Z,24.30
2022-10-11T01:29:41.181Z,18.00
2022-10-11T01:32:15.421Z,16.70
2022-10-11T01:34:52.170Z,19.80
2022-10-11T01:37:46.986Z,22.50
2022-10-11T01:40:21.964Z,12.80
2022-10-11T01:42:50.325Z,16.30
2022-10-11T01:45:19.874Z,18.80
2022-10-11T01:47:51.473Z,18.70
2022-10-11T01:50:31.299Z,21.20
2022-10-11T01:53:03.318Z,18.40
2022-10-11T01:55:35.677Z,18.60
2022-10-11T01:58:12.532Z,20.00
2022-10-11T02:00:46.657Z,17.60
2022-10-11T02:03:22.633Z,14.70
2022-10-11T02:05:55.755Z,20.50
2022-10-11T02:08:42.289Z,17.70
2022-10-11T02:11:16.342Z,19.50
2022-10-11T02:16:12.923Z,14.10
2022-10-11T02:18:46.984Z,16.20
2022-10-11T02:23:48.346Z,16.60
2022-10-11T02:26:17.008Z,19.70
2022-10-11T02:28:53.239Z,15.50
2022-10-11T02:31:22.335Z,18.80
2022-10-11T02:33:53.909Z,22.90
2022-10-11T02:36:26.131Z,19.80
2022-10-11T02:38:56.120Z,26.20
2022-10-11T02:41:36.569Z,20.60
2022-10-11T02:44:06.723Z,18.80
2022-10-11T02:46:34.832Z,23.00
2022-10-11T02:49:03.249Z,19.10
2022-10-11T02:51:37.811Z,27.10
2022-10-11T02:54:11.686Z,21.80
2022-10-11T02:56:45.870Z,31.90
2022-10-11T02:59:17.918Z,13.90
2022-10-11T03:01:45.730Z,19.10
2022-10-11T03:04:14.372Z,21.20
2022-10-11T03:06:42.419Z,23.90
2022-10-11T03:09:10.337Z,19.70
2022-10-11T03:11:38.111Z,22.70
2022-10-11T03:14:05.789Z,22.30
2022-10-11T03:16:33.561Z,26.60
2022-10-11T03:19:01.240Z,22.60
2022-10-11T03:21:28.976Z,19.80
2022-10-11T03:23:56.837Z,23.50
2022-10-11T03:26:24.592Z,26.20
2022-10-11T03:28:52.815Z,22.20
2022-10-11T03:31:22.214Z,22.40
2022-10-11T03:33:50.308Z,28.00
2022-10-11T03:36:18.142Z,19.50
2022-10-11T03:38:46.364Z,22.10
2022-10-11T03:41:14.122Z,24.60
2022-10-11T03:43:41.843Z,26.40
2022-10-11T03:46:09.555Z,26.00
2022-10-11T03:48:37.443Z,25.70
2022-10-11T03:51:05.272Z,25.50
2022-10-11T03:53:32.932Z,25.70
2022-10-11T03:56:04.575Z,35.60
2022-10-11T03:58:35.369Z,26.70
2022-10-11T04:01:03.233Z,28.40
2022-10-11T04:03:31.001Z,36.00
2022-10-11T04:05:58.713Z,34.20
2022-10-11T04:08:32.794Z,27.70
2022-10-11T04:11:00.703Z,19.70
2022-10-11T04:13:28.650Z,29.50
2022-10-11T04:15:56.454Z,23.20
2022-10-11T04:18:24.169Z,30.80
2022-10-11T04:20:51.969Z,30.80
2022-10-11T04:23:19.749Z,26.30
2022-10-11T04:25:48.417Z,29.80
2022-10-11T04:28:16.088Z,25.60
2022-10-11T04:30:43.820Z,26.50
2022-10-11T04:33:12.140Z,30.30
2022-10-11T04:35:40.164Z,33.70
2022-10-11T04:38:07.735Z,26.50
2022-10-11T04:40:35.495Z,24.30
2022-10-11T04:43:03.184Z,24.10
2022-10-11T04:45:31.140Z,26.00
2022-10-11T04:47:59.022Z,25.40
2022-10-11T04:50:26.746Z,23.50
2022-10-11T04:52:58.466Z,28.10
2022-10-11T04:55:29.168Z,23.70
2022-10-11T04:57:57.008Z,32.40
2022-10-11T05:00:24.646Z,27.40
2022-10-11T05:02:54.554Z,25.10
2022-10-11T05:05:23.419Z,22.80
2022-10-11T05:07:53.898Z,35.40
2022-10-11T05:10:21.602Z,21.20
2022-10-11T05:12:49.302Z,24.50
2022-10-11T05:15:18.619Z,20.70
2022-10-11T05:17:46.638Z,27.30
2022-10-11T05:20:14.278Z,31.10
2022-10-11T05:22:41.939Z,29.40
2022-10-11T05:25:09.667Z,29.60
2022-10-11T05:27:37.274Z,26.30
2022-10-11T05:30:05.340Z,22.70
2022-10-11T05:32:33.022Z,27.70
2022-10-11T05:35:00.681Z,36.10
2022-10-11T05:37:28.284Z,23.50
2022-10-11T05:39:56.049Z,25.90
2022-10-11T05:42:30.693Z,24.90
2022-10-11T05:44:58.474Z,27.30
2022-10-11T05:47:26.233Z,25.50
2022-10-11T05:49:54.033Z,31.50
2022-10-11T05:52:21.664Z,31.20
2022-10-11T05:54:49.305Z,28.20
2022-10-11T05:57:17.000Z,26.50
2022-10-11T05:59:44.713Z,29.90
2022-10-11T06:02:15.920Z,26.50
2022-10-11T06:04:43.753Z,24.20
2022-10-11T06:07:11.475Z,21.70
2022-10-11T06:09:39.847Z,31.90
2022-10-11T06:12:07.570Z,21.20
2022-10-11T06:14:35.662Z,25.40
2022-10-11T06:17:03.356Z,25.90
2022-10-11T06:19:31.601Z,26.70
2022-10-11T06:21:59.238Z,19.30
2022-10-11T06:24:26.865Z,17.50
2022-10-11T06:26:55.724Z,27.90
2022-10-11T06:29:23.372Z,25.50
2022-10-11T06:31:50.987Z,14.20
2022-10-11T06:34:18.593Z,23.80
2022-10-11T06:36:46.202Z,21.10
2022-10-11T06:39:13.980Z,20.40
2022-10-11T06:41:41.688Z,21.40
2022-10-11T06:44:14.329Z,20.30
2022-10-11T06:46:42.474Z,19.50
2022-10-11T06:49:10.209Z,18.10
2022-10-11T06:51:37.905Z,15.40
2022-10-11T06:54:05.592Z,17.50
2022-10-11T06:56:33.166Z,28.40
2022-10-11T06:59:00.842Z,27.30
2022-10-11T07:01:28.714Z,19.40
2022-10-11T07:03:58.584Z,14.10
2022-10-11T07:06:28.039Z,12.70
2022-10-11T07:08:56.039Z,17.70
2022-10-11T07:11:30.891Z,16.80
2022-10-11T07:13:59.813Z,13.20
2022-10-11T07:16:28.464Z,16.40
2022-10-11T07:19:01.398Z,16.20
2022-10-11T07:21:30.158Z,13.90
2022-10-11T07:23:58.066Z,12.70
2022-10-11T07:26:26.069Z,16.40
2022-10-11T07:28:53.968Z,13.20
2022-10-11T07:31:22.966Z,11.80
2022-10-11T07:33:50.785Z,12.00
2022-10-11T07:36:18.464Z,14.70
2022-10-11T07:38:47.124Z,10.20
2022-10-11T07:41:21.756Z,13.30
2022-10-11T07:43:56.353Z,10.40
2022-10-11T07:46:27.892Z,7.50
2022-10-11T07:48:55.549Z,11.70
2022-10-11T07:51:24.440Z,12.60
2022-10-11T07:53:54.658Z,15.50
2022-10-11T07:56:24.144Z,12.90
2022-10-11T07:59:03.560Z,10.80
2022-10-11T08:01:31.936Z,11.90
2022-10-11T08:04:00.031Z,10.90
2022-10-11T08:06:31.872Z,13.00
2022-10-11T08:09:04.030Z,14.10
2022-10-11T08:11:33.624Z,19.10
2022-10-11T08:14:02.537Z,15.70
2022-10-11T08:16:30.917Z,12.40
2022-10-11T08:18:58.780Z,10.90
2022-10-11T08:21:26.983Z,12.00
2022-10-11T08:23:54.989Z,14.80
2022-10-11T08:26:28.620Z,15.50
2022-10-11T08:28:56.460Z,12.80
2022-10-11T08:31:24.257Z,16.20
2022-10-11T08:33:51.868Z,13.30
2022-10-11T08:36:19.497Z,13.60
2022-10-11T08:38:47.234Z,11.10
2022-10-11T08:41:15.007Z,19.20
2022-10-11T08:43:46.101Z,14.40
2022-10-11T08:46:14.464Z,18.90
2022-10-11T08:48:43.440Z,16.30
2022-10-11T08:51:18.311Z,13.70
2022-10-11T08:53:51.287Z,8.20
2022-10-11T08:56:20.430Z,7.40
2022-10-11T08:58:57.785Z,12.80
2022-10-11T09:01:30.969Z,26.50
2022-10-11T09:04:00.220Z,16.20
2022-10-11T09:06:36.052Z,7.80
2022-10-11T09:09:22.676Z,14.20
2022-10-11T09:11:50.364Z,10.30
2022-10-11T09:14:17.937Z,8.20
2022-10-11T09:16:50.287Z,14.00
2022-10-11T09:19:34.822Z,5.00
2022-10-11T09:22:08.519Z,8.50
2022-10-11T09:24:45.714Z,9.20
2022-10-11T09:27:19.328Z,6.80
2022-10-11T09:30:02.185Z,12.00
2022-10-11T09:32:36.325Z,6.00
2022-10-11T09:35:12.781Z,5.60
2022-10-11T09:37:44.465Z,6.20
2022-10-11T09:40:30.736Z,9.00
2022-10-11T09:42:59.552Z,9.80
2022-10-11T09:45:27.139Z,7.50
2022-10-11T09:47:56.075Z,10.90
2022-10-11T09:50:26.354Z,9.60
2022-10-11T09:52:55.774Z,7.90
2022-10-11T09:55:35.268Z,6.40
2022-10-11T09:58:04.775Z,10.80
2022-10-11T10:00:34.348Z,6.50
2022-10-11T10:03:22.003Z,9.10
2022-10-11T10:06:08.510Z,4.60
2022-10-11T10:08:37.109Z,11.70
2022-10-11T10:11:07.303Z,8.70
2022-10-11T10:13:46.336Z,9.10
2022-10-11T10:16:22.127Z,8.50
2022-10-11T10:19:00.836Z,10.50
2022-10-11T10:21:31.450Z,7.00
2022-10-11T10:24:03.199Z,19.10
2022-10-11T10:26:31.496Z,16.60
2022-10-11T10:29:02.435Z,13.70
2022-10-11T10:32:01.576Z,12.30
2022-10-11T10:34:34.175Z,13.10
2022-10-11T10:37:01.932Z,11.40
2022-10-11T10:39:44.745Z,4.50
2022-10-11T10:42:17.186Z,9.20
2022-10-11T10:44:47.509Z,17.50
2022-10-11T10:47:30.528Z,10.90
2022-10-11T10:50:05.779Z,11.70
2022-10-11T10:52:36.195Z,15.50
2022-10-11T10:55:12.250Z,15.60
2022-10-11T10:57:39.853Z,9.40
2022-10-11T11:00:10.382Z,12.80
2022-10-11T11:02:44.336Z,14.30
2022-10-11T11:07:39.830Z,8.60
2022-10-11T11:10:13.969Z,14.20
2022-10-11T11:13:01.407Z,6.20
2022-10-11T11:16:05.487Z,9.40
2022-10-11T11:18:46.705Z,12.70
2022-10-11T11:21:25.306Z,6.30
2022-10-11T11:24:13.190Z,8.30
2022-10-11T11:26:49.946Z,12.60
2022-10-11T11:29:50.761Z,15.20
2022-10-11T11:32:44.777Z,10.00
2022-10-11T11:35:27.351Z,8.60
2022-10-11T11:38:02.549Z,15.60
2022-10-11T11:40:35.533Z,11.80
2022-10-11T11:43:30.083Z,8.40
2022-10-11T11:48:26.531Z,10.70
2022-10-11T11:51:07.683Z,6.70
2022-10-11T11:53:54.692Z,7.00
2022-10-11T11:56:26.928Z,9.30
2022-10-11T11:59:06.561Z,12.20
2022-10-11T12:01:45.176Z,7.00
2022-10-11T12:04:19.231Z,9.50
2022-10-11T12:07:18.313Z,6.90
2022-10-11T12:09:50.686Z,14.10
2022-10-11T12:12:29.759Z,6.00
2022-10-11T12:15:03.582Z,8.60
2022-10-11T12:20:01.882Z,10.90
2022-10-11T12:22:29.574Z,15.70
2022-10-11T12:24:58.803Z,5.40
2022-10-11T12:27:44.044Z,7.50
2022-10-11T12:30:30.633Z,8.70
2022-10-11T12:33:27.504Z,10.90
2022-10-11T12:35:58.307Z,9.10
2022-10-11T12:38:30.200Z,5.10
2022-10-11T12:41:10.065Z,8.00
2022-10-11T12:43:50.066Z,11.70
2022-10-11T12:46:31.685Z,6.90
2022-10-11T12:49:07.648Z,6.90
2022-10-11T12:51:39.974Z,6.10
2022-10-11T12:54:26.039Z,9.80
2022-10-11T12:56:57.698Z,8.10
2022-10-11T12:59:25.877Z,8.90
2022-10-11T13:01:55.006Z,10.20
2022-10-11T13:04:25.398Z,12.10
2022-10-11T13:06:54.727Z,7.20
2022-10-11T13:09:49.317Z,6.70
2022-10-11T13:12:19.547Z,6.30
2022-10-11T13:15:03.449Z,14.50
2022-10-11T13:17:37.977Z,9.50
2022-10-11T13:20:06.144Z,9.10
2022-10-11T13:22:54.879Z,7.20
2022-10-11T13:25:24.175Z,7.40
2022-10-11T13:27:53.316Z,7.20
2022-10-11T13:30:24.222Z,10.90
2022-10-11T13:32:52.662Z,11.70
2022-10-11T13:35:25.144Z,7.80
2022-10-11T13:37:56.843Z,14.60
2022-10-11T13:40:31.908Z,8.90
2022-10-11T13:43:06.417Z,11.40
2022-10-11T13:45:41.535Z,10.20
2022-10-11T13:48:14.608Z,16.10
2022-10-11T13:51:07.480Z,14.70
2022-10-11T13:53:35.707Z,6.00
2022-10-11T13:56:05.861Z,9.20
2022-10-11T13:58:40.530Z,9.00
2022-10-11T14:01:19.687Z,9.20
2022-10-11T14:03:49.118Z,11.30
2022-10-11T14:06:16.772Z,8.30
2022-10-11T14:08:58.680Z,10.40
2022-10-11T14:11:37.711Z,6.40
2022-10-11T14:14:24.340Z,9.70
2022-10-11T14:16:59.410Z,6.30
2022-10-11T14:19:27.178Z,8.10
2022-10-11T14:21:54.923Z,10.80
2022-10-11T14:24:22.689Z,16.20
2022-10-11T14:26:54.553Z,19.50
2022-10-11T14:29:26.876Z,18.00
2022-10-11T14:32:03.024Z,8.30
2022-10-11T14:34:31.183Z,9.30
2022-10-11T14:36:58.903Z,12.10
2022-10-11T14:39:29.596Z,6.50
2022-10-11T14:41:57.983Z,12.40
2022-10-11T14:44:25.585Z,7.20
2022-10-11T14:46:54.788Z,9.10
2022-10-11T14:49:26.663Z,7.60
2022-10-11T14:51:55.370Z,8.90
2022-10-11T14:54:24.135Z,14.90
2022-10-11T14:56:52.785Z,8.40
2022-10-11T14:59:21.973Z,13.20
2022-10-11T15:01:52.082Z,13.40
2022-10-11T15:04:24.621Z,20.20
2022-10-11T15:06:53.438Z,14.20
2022-10-11T15:09:21.389Z,13.20
2022-10-11T15:11:52.888Z,11.00
2022-10-11T15:14:21.376Z,10.30
2022-10-11T15:16:49.076Z,14.30
2022-10-11T15:19:18.494Z,17.10
2022-10-11T15:21:46.348Z,15.20
2022-10-11T15:24:14.214Z,28.00
2022-10-11T15:26:42.089Z,14.00
2022-10-11T15:29:10.740Z,22.30
2022-10-11T15:31:38.783Z,41.50
2022-10-11T15:34:13.269Z,149.80
2022-10-11T15:36:40.946Z,259.40
2022-10-11T15:39:37.225Z,166.80
2022-10-11T15:42:05.289Z,75.20
2022-10-11T15:44:33.027Z,99.40
2022-10-11T15:47:00.717Z,167.30
2022-10-11T15:49:28.971Z,97.90
2022-10-11T15:51:57.243Z,105.30
2022-10-11T15:54:24.967Z,40.60
2022-10-11T15:56:52.710Z,28.20
2022-10-11T15:59:20.471Z,42.70
2022-10-11T16:01:48.283Z,58.00
2022-10-11T16:04:16.143Z,36.40
2022-10-11T16:06:43.946Z,41.60
2022-10-11T16:09:11.686Z,61.40
2022-10-11T16:11:40.353Z,54.50
2022-10-11T16:14:08.196Z,56.90
2022-10-11T16:16:37.094Z,46.00
2022-10-11T16:19:04.939Z,43.30
2022-10-11T16:21:34.173Z,34.80
2022-10-11T16:24:01.918Z,33.40
2022-10-11T16:26:29.608Z,37.60
2022-10-11T16:28:57.824Z,33.90
2022-10-11T16:31:25.641Z,27.70
2022-10-11T16:33:53.411Z,28.70
2022-10-11T16:36:32.181Z,38.50
2022-10-11T16:39:08.649Z,28.10
2022-10-11T16:41:36.934Z,25.70
2022-10-11T16:44:05.419Z,42.40
2022-10-11T16:46:34.247Z,28.50
2022-10-11T16:49:02.375Z,33.40
2022-10-11T16:51:30.820Z,33.70
2022-10-11T16:53:58.729Z,36.70
2022-10-11T16:56:28.161Z,28.30
2022-10-11T16:58:56.022Z,44.60
2022-10-11T17:01:24.627Z,30.10
2022-10-11T17:03:52.483Z,25.20
2022-10-11T17:06:20.242Z,23.60
2022-10-11T17:08:47.992Z,24.90
2022-10-11T17:11:17.613Z,27.00
2022-10-11T17:13:45.797Z,27.10
2022-10-11T17:16:13.569Z,35.40
2022-10-11T17:18:41.730Z,78.40
2022-10-11T17:21:11.881Z,48.90
2022-10-11T17:23:39.678Z,36.80
2022-10-11T17:26:11.357Z,49.90
2022-10-11T17:28:39.554Z,36.80
2022-10-11T17:31:08.003Z,38.80
2022-10-11T17:33:40.320Z,54.50
2022-10-11T17:36:14.333Z,37.10
2022-10-11T17:41:15.240Z,30.60
2022-10-11T17:43:49.406Z,40.20
2022-10-11T17:46:17.925Z,37.30
2022-10-11T17:48:45.787Z,31.30
2022-10-11T17:51:18.391Z,56.00
2022-10-11T17:53:51.058Z,75.80
2022-10-11T17:56:29.542Z,52.40
2022-10-11T17:58:59.422Z,33.20
2022-10-11T18:01:29.194Z,29.70
2022-10-11T18:04:01.638Z,24.30
2022-10-11T18:06:30.862Z,34.50
2022-10-11T18:09:02.461Z,46.30
2022-10-11T18:11:30.468Z,33.10
2022-10-11T18:13:58.650Z,36.70
2022-10-11T18:16:27.629Z,34.70
2022-10-11T18:18:57.616Z,32.10
2022-10-11T18:21:28.798Z,30.10
2022-10-11T18:24:02.326Z,33.40
2022-10-11T18:26:37.011Z,30.30
2022-10-11T18:29:09.073Z,34.40
2022-10-11T18:31:37.006Z,29.50
2022-10-11T18:34:05.898Z,25.40
2022-10-11T18:36:33.648Z,38.50
2022-10-11T18:39:02.702Z,41.50
2022-10-11T18:41:31.922Z,29.00
2022-10-11T18:44:01.268Z,28.50
2022-10-11T18:46:35.632Z,45.70
2022-10-11T18:49:03.907Z,52.40
2022-10-11T18:51:33.480Z,47.30
2022-10-11T18:54:01.736Z,53.40
2022-10-11T18:56:30.593Z,53.00
2022-10-11T18:58:59.281Z,29.10
2022-10-11T19:01:28.748Z,23.80
2022-10-11T19:03:58.221Z,67.30
2022-10-11T19:06:28.553Z,71.60
2022-10-11T19:09:00.465Z,67.80
2022-10-11T19:11:28.360Z,45.20
2022-10-11T19:14:02.659Z,39.40
2022-10-11T19:16:30.925Z,40.90
2022-10-11T19:18:59.400Z,45.60
2022-10-11T19:21:27.478Z,39.40
2022-10-11T19:23:55.858Z,27.80
2022-10-11T19:26:26.706Z,27.70
2022-10-11T19:28:56.303Z,20.00
2022-10-11T19:31:25.812Z,23.50
2022-10-11T19:33:53.544Z,27.80
2022-10-11T19:36:21.200Z,23.60
2022-10-11T19:38:50.256Z,25.60
2022-10-11T19:41:19.172Z,22.60
2022-10-11T19:43:47.015Z,20.20
2022-10-11T19:46:27.391Z,21.60
2022-10-11T19:49:06.874Z,22.90
2022-10-11T19:51:35.284Z,30.20
2022-10-11T19:54:08.302Z,27.70
2022-10-11T19:56:36.023Z,28.40
2022-10-11T19:59:06.483Z,32.00
2022-10-11T20:01:41.660Z,28.70
2022-10-11T20:04:18.782Z,31.10
2022-10-11T20:06:58.522Z,40.00
2022-10-11T20:09:30.571Z,46.10
2022-10-11T20:12:01.574Z,41.00
2022-10-11T20:14:29.181Z,36.10
2022-10-11T20:16:56.792Z,48.10
2022-10-11T20:19:30.620Z,49.10
2022-10-11T20:21:59.698Z,48.50
2022-10-11T20:24:32.619Z,45.30
2022-10-11T20:27:02.400Z,38.90
2022-10-11T20:29:30.207Z,46.30
2022-10-11T20:31:59.083Z,46.10
2022-10-11T20:34:27.682Z,39.50
2022-10-11T20:36:56.064Z,114.90
2022-10-11T20:39:27.010Z,38.80
2022-10-11T20:41:54.925Z,41.00
2022-10-11T20:44:22.613Z,38.10
2022-10-11T20:46:50.412Z,44.00
2022-10-11T20:49:20.038Z,33.30
2022-10-11T20:51:48.142Z,42.40
2022-10-11T20:54:16.088Z,49.00
2022-10-11T20:56:43.801Z,47.00
2022-10-11T20:59:11.605Z,45.40
2022-10-11T21:01:40.659Z,52.50
2022-10-11T21:04:16.723Z,47.00
2022-10-11T21:06:44.710Z,32.20
2022-10-11T21:09:15.483Z,33.10
2022-10-11T21:11:44.958Z,39.40
2022-10-11T21:14:12.647Z,34.80
2022-10-11T21:16:40.294Z,37.10
2022-10-11T21:19:12.235Z,37.50
2022-10-11T21:21:40.047Z,49.30
2022-10-11T21:24:08.527Z,35.70
2022-10-11T21:26:36.340Z,33.60
2022-10-11T21:29:04.287Z,54.00
2022-10-11T21:31:34.445Z,30.10
2022-10-11T21:34:05.242Z,52.30
2022-10-11T21:36:33.040Z,36.60
2022-10-11T21:39:00.871Z,43.80
2022-10-11T21:41:30.299Z,44.50
2022-10-11T21:43:58.963Z,84.80
2022-10-11T21:46:47.416Z,65.90
2022-10-11T21:49:15.747Z,89.80
2022-10-11T21:51:43.776Z,69.10
2022-10-11T21:54:11.741Z,79.80
2022-10-11T21:56:39.787Z,76.20
2022-10-11T21:59:11.155Z,92.40
2022-10-11T22:01:46.991Z,84.30
2022-10-11T22:04:14.685Z,63.40
2022-10-11T22:06:42.714Z,56.60
2022-10-11T22:09:11.537Z,56.50
2022-10-11T22:11:39.325Z,43.00
2022-10-11T22:14:07.179Z,43.40
2022-10-11T22:16:36.037Z,35.40
2022-10-11T22:19:05.226Z,41.50
2022-10-11T22:21:33.059Z,42.40
2022-10-11T22:24:00.820Z,37.90
2022-10-11T22:26:30.906Z,32.80
2022-10-11T22:29:00.448Z,35.70
2022-10-11T22:31:29.499Z,40.60
2022-10-11T22:33:58.416Z,32.60
2022-10-11T22:36:26.595Z,32.10
2022-10-11T22:38:54.803Z,37.40
2022-10-11T22:41:22.991Z,36.40
2022-10-11T22:43:50.804Z,37.40
2022-10-11T22:46:18.512Z,50.60
2022-10-11T22:48:46.219Z,59.40
2022-10-11T22:51:14.525Z,87.40
2022-10-11T22:53:49.204Z,98.20
2022-10-11T22:56:17.165Z,61.00
2022-10-11T22:58:45.657Z,50.50
2022-10-11T23:01:15.414Z,41.90
2022-10-11T23:03:43.230Z,76.90
2022-10-11T23:06:11.038Z,67.10
2022-10-11T23:08:38.760Z,53.90
2022-10-11T23:11:07.231Z,74.00
2022-10-11T23:13:35.219Z,66.10
2022-10-11T23:16:10.331Z,66.80
2022-10-11T23:18:38.637Z,48.60
2022-10-11T23:21:06.720Z,43.20
2022-10-11T23:23:34.499Z,25.70
2022-10-11T23:26:07.683Z,33.20
2022-10-11T23:28:35.729Z,34.20
2022-10-11T23:31:10.312Z,37.90
2022-10-11T23:33:38.631Z,25.50
2022-10-11T23:36:06.767Z,36.50
2022-10-11T23:38:34.337Z,37.00
2022-10-11T23:41:02.072Z,24.30
2022-10-11T23:43:29.988Z,44.60
2022-10-11T23:45:57.781Z,41.60
2022-10-11T23:48:25.525Z,31.70
2022-10-11T23:50:59.920Z,33.60
2022-10-11T23:53:27.577Z,32.40
2022-10-11T23:55:55.423Z,28.70
2022-10-11T23:58:25.875Z,25.70
